sensor_id;sensor_type;location;lat;lon;timestamp;temperature;humidity
45765;DHT22;31474;45.332;10.230;2023-04-25T00:00:26;14.50;99.90
45765;DHT22;31474;45.332;10.230;2023-04-25T00:02:52;14.50;99.90
45765;DHT22;31474;45.332;10.230;2023-04-25T00:05:17;14.50;99.90
45765;DHT22;31474;45.332;10.230;2023-04-25T00:07:43;14.40;99.90
45765;DHT22;31474;45.332;10.230;2023-04-25T00:10:09;14.50;99.90
45765;DHT22;31474;45.332;10.230;2023-04-25T00:12:36;14.50;99.90
45765;DHT22;31474;45.332;10.230;2023-04-25T00:15:03;14.50;99.90
45765;DHT22;31474;45.332;10.230;2023-04-25T00:17:29;14.50;99.90
45765;DHT22;31474;45.332;10.230;2023-04-25T00:19:54;14.50;99.90
45765;DHT22;31474;45.332;10.230;2023-04-25T00:22:21;14.50;99.90
45765;DHT22;31474;45.332;10.230;2023-04-25T00:24:47;14.40;99.90
45765;DHT22;31474;45.332;10.230;2023-04-25T00:27:12;14.30;99.90
45765;DHT22;31474;45.332;10.230;2023-04-25T00:29:38;14.20;99.90
45765;DHT22;31474;45.332;10.230;2023-04-25T00:32:04;14.30;99.90
45765;DHT22;31474;45.332;10.230;2023-04-25T00:34:29;14.20;99.90
45765;DHT22;31474;45.332;10.230;2023-04-25T00:36:55;14.20;99.90
45765;DHT22;31474;45.332;10.230;2023-04-25T00:39:22;14.20;99.90
45765;DHT22;31474;45.332;10.230;2023-04-25T00:41:48;14.10;99.90
45765;DHT22;31474;45.332;10.230;2023-04-25T00:44:15;14.00;99.90
45765;DHT22;31474;45.332;10.230;2023-04-25T00:46:42;14.00;99.90
45765;DHT22;31474;45.332;10.230;2023-04-25T00:49:08;14.10;99.90
45765;DHT22;31474;45.332;10.230;2023-04-25T00:51:34;14.10;99.90
45765;DHT22;31474;45.332;10.230;2023-04-25T00:54:00;14.10;99.90
45765;DHT22;31474;45.332;10.230;2023-04-25T00:56:26;14.10;99.90
45765;DHT22;31474;45.332;10.230;2023-04-25T00:58:53;14.10;99.90
45765;DHT22;31474;45.332;10.230;2023-04-25T01:01:22;14.10;99.90
45765;DHT22;31474;45.332;10.230;2023-04-25T01:03:49;14.10;99.90
45765;DHT22;31474;45.332;10.230;2023-04-25T01:06:15;14.20;99.90
45765;DHT22;31474;45.332;10.230;2023-04-25T01:08:41;14.10;99.90
45765;DHT22;31474;45.332;10.230;2023-04-25T01:11:07;14.10;99.90
45765;DHT22;31474;45.332;10.230;2023-04-25T01:13:33;14.00;99.90
45765;DHT22;31474;45.332;10.230;2023-04-25T01:16:00;14.00;99.90
45765;DHT22;31474;45.332;10.230;2023-04-25T01:18:26;14.00;99.90
45765;DHT22;31474;45.332;10.230;2023-04-25T01:20:52;13.90;99.90
45765;DHT22;31474;45.332;10.230;2023-04-25T01:23:20;13.90;99.90
45765;DHT22;31474;45.332;10.230;2023-04-25T01:25:47;14.00;99.90
45765;DHT22;31474;45.332;10.230;2023-04-25T01:28:13;13.90;99.90
45765;DHT22;31474;45.332;10.230;2023-04-25T01:30:39;14.00;99.90
45765;DHT22;31474;45.332;10.230;2023-04-25T01:33:05;14.00;99.90
45765;DHT22;31474;45.332;10.230;2023-04-25T01:35:31;14.00;99.90
45765;DHT22;31474;45.332;10.230;2023-04-25T01:37:57;14.10;99.90
45765;DHT22;31474;45.332;10.230;2023-04-25T01:40:24;14.10;99.90
45765;DHT22;31474;45.332;10.230;2023-04-25T01:42:51;14.20;99.90
45765;DHT22;31474;45.332;10.230;2023-04-25T01:45:17;14.20;99.90
45765;DHT22;31474;45.332;10.230;2023-04-25T01:47:43;14.30;99.90
45765;DHT22;31474;45.332;10.230;2023-04-25T01:50:12;14.30;99.90
45765;DHT22;31474;45.332;10.230;2023-04-25T01:52:38;14.30;99.90
45765;DHT22;31474;45.332;10.230;2023-04-25T01:55:04;14.30;99.90
45765;DHT22;31474;45.332;10.230;2023-04-25T01:57:30;14.40;99.90
45765;DHT22;31474;45.332;10.230;2023-04-25T02:00:01;14.40;99.90
45765;DHT22;31474;45.332;10.230;2023-04-25T02:02:28;14.30;99.90
45765;DHT22;31474;45.332;10.230;2023-04-25T02:04:53;14.20;99.90
45765;DHT22;31474;45.332;10.230;2023-04-25T02:07:20;14.20;99.90
45765;DHT22;31474;45.332;10.230;2023-04-25T02:09:46;14.30;99.90
45765;DHT22;31474;45.332;10.230;2023-04-25T02:12:11;14.30;99.90
45765;DHT22;31474;45.332;10.230;2023-04-25T02:14:37;14.30;99.90
45765;DHT22;31474;45.332;10.230;2023-04-25T02:17:03;14.30;99.90
45765;DHT22;31474;45.332;10.230;2023-04-25T02:19:28;14.30;99.90
45765;DHT22;31474;45.332;10.230;2023-04-25T02:21:54;14.30;99.90
45765;DHT22;31474;45.332;10.230;2023-04-25T02:24:20;14.20;99.90
45765;DHT22;31474;45.332;10.230;2023-04-25T02:26:46;14.10;99.90
45765;DHT22;31474;45.332;10.230;2023-04-25T02:29:12;14.10;99.90
45765;DHT22;31474;45.332;10.230;2023-04-25T02:31:38;14.10;99.90
45765;DHT22;31474;45.332;10.230;2023-04-25T02:34:04;14.10;99.90
45765;DHT22;31474;45.332;10.230;2023-04-25T02:36:30;14.10;99.90
45765;DHT22;31474;45.332;10.230;2023-04-25T02:39:00;14.10;99.90
45765;DHT22;31474;45.332;10.230;2023-04-25T02:41:26;14.10;99.90
45765;DHT22;31474;45.332;10.230;2023-04-25T02:43:51;14.10;99.90
45765;DHT22;31474;45.332;10.230;2023-04-25T02:46:17;14.00;99.90
45765;DHT22;31474;45.332;10.230;2023-04-25T02:48:43;13.90;99.90
45765;DHT22;31474;45.332;10.230;2023-04-25T02:51:09;13.80;99.90
45765;DHT22;31474;45.332;10.230;2023-04-25T02:53:34;13.90;99.90
45765;DHT22;31474;45.332;10.230;2023-04-25T02:56:00;14.00;99.90
45765;DHT22;31474;45.332;10.230;2023-04-25T02:58:27;14.00;99.90
45765;DHT22;31474;45.332;10.230;2023-04-25T03:00:52;13.90;99.90
45765;DHT22;31474;45.332;10.230;2023-04-25T03:03:18;14.00;99.90
45765;DHT22;31474;45.332;10.230;2023-04-25T03:05:50;13.90;99.90
45765;DHT22;31474;45.332;10.230;2023-04-25T03:08:16;13.90;99.90
45765;DHT22;31474;45.332;10.230;2023-04-25T03:10:42;13.90;99.90
45765;DHT22;31474;45.332;10.230;2023-04-25T03:13:08;13.90;99.90
45765;DHT22;31474;45.332;10.230;2023-04-25T03:15:34;13.90;99.90
45765;DHT22;31474;45.332;10.230;2023-04-25T03:18:00;13.80;99.90
45765;DHT22;31474;45.332;10.230;2023-04-25T03:20:26;13.90;99.90
45765;DHT22;31474;45.332;10.230;2023-04-25T03:22:52;13.90;99.90
45765;DHT22;31474;45.332;10.230;2023-04-25T03:25:17;14.00;99.90
45765;DHT22;31474;45.332;10.230;2023-04-25T03:27:43;14.10;99.90
45765;DHT22;31474;45.332;10.230;2023-04-25T03:30:09;14.20;99.90
45765;DHT22;31474;45.332;10.230;2023-04-25T03:32:35;14.20;99.90
45765;DHT22;31474;45.332;10.230;2023-04-25T03:35:00;14.30;99.90
45765;DHT22;31474;45.332;10.230;2023-04-25T03:37:26;14.30;99.90
45765;DHT22;31474;45.332;10.230;2023-04-25T03:39:52;14.20;99.90
45765;DHT22;31474;45.332;10.230;2023-04-25T03:42:17;14.20;99.90
45765;DHT22;31474;45.332;10.230;2023-04-25T03:44:43;14.10;99.90
45765;DHT22;31474;45.332;10.230;2023-04-25T03:47:09;14.10;99.90
45765;DHT22;31474;45.332;10.230;2023-04-25T03:49:35;14.00;99.90
45765;DHT22;31474;45.332;10.230;2023-04-25T03:52:01;13.90;99.90
45765;DHT22;31474;45.332;10.230;2023-04-25T03:54:27;13.80;99.90
45765;DHT22;31474;45.332;10.230;2023-04-25T03:56:53;13.80;99.90
45765;DHT22;31474;45.332;10.230;2023-04-25T03:59:19;13.80;99.90
45765;DHT22;31474;45.332;10.230;2023-04-25T04:01:44;13.80;99.90
45765;DHT22;31474;45.332;10.230;2023-04-25T04:04:10;13.80;99.90
45765;DHT22;31474;45.332;10.230;2023-04-25T04:06:35;13.90;99.90
45765;DHT22;31474;45.332;10.230;2023-04-25T04:09:02;13.90;99.90
45765;DHT22;31474;45.332;10.230;2023-04-25T04:11:28;14.00;99.90
45765;DHT22;31474;45.332;10.230;2023-04-25T04:13:54;14.00;99.90
45765;DHT22;31474;45.332;10.230;2023-04-25T04:16:20;14.00;99.90
45765;DHT22;31474;45.332;10.230;2023-04-25T04:18:45;14.00;99.90
45765;DHT22;31474;45.332;10.230;2023-04-25T04:21:11;13.90;99.90
45765;DHT22;31474;45.332;10.230;2023-04-25T04:23:37;14.00;99.90
45765;DHT22;31474;45.332;10.230;2023-04-25T04:26:03;14.10;99.90
45765;DHT22;31474;45.332;10.230;2023-04-25T04:28:28;14.10;99.90
45765;DHT22;31474;45.332;10.230;2023-04-25T04:30:55;14.20;99.90
45765;DHT22;31474;45.332;10.230;2023-04-25T04:33:20;14.20;99.90
45765;DHT22;31474;45.332;10.230;2023-04-25T04:35:46;14.20;99.90
45765;DHT22;31474;45.332;10.230;2023-04-25T04:38:13;14.20;99.90
45765;DHT22;31474;45.332;10.230;2023-04-25T04:40:40;14.20;99.90
45765;DHT22;31474;45.332;10.230;2023-04-25T04:43:08;14.20;99.90
45765;DHT22;31474;45.332;10.230;2023-04-25T04:45:36;14.20;99.90
45765;DHT22;31474;45.332;10.230;2023-04-25T04:48:05;14.20;99.90
45765;DHT22;31474;45.332;10.230;2023-04-25T04:50:31;14.20;99.90
45765;DHT22;31474;45.332;10.230;2023-04-25T04:52:58;14.30;99.90
45765;DHT22;31474;45.332;10.230;2023-04-25T04:55:23;14.40;99.90
45765;DHT22;31474;45.332;10.230;2023-04-25T04:57:49;14.30;99.90
45765;DHT22;31474;45.332;10.230;2023-04-25T05:00:15;14.30;99.90
45765;DHT22;31474;45.332;10.230;2023-04-25T05:02:41;14.40;99.90
45765;DHT22;31474;45.332;10.230;2023-04-25T05:05:07;14.30;99.90
45765;DHT22;31474;45.332;10.230;2023-04-25T05:07:33;14.30;99.90
45765;DHT22;31474;45.332;10.230;2023-04-25T05:09:59;14.30;99.90
45765;DHT22;31474;45.332;10.230;2023-04-25T05:12:25;14.30;99.90
45765;DHT22;31474;45.332;10.230;2023-04-25T05:14:51;14.30;99.90
45765;DHT22;31474;45.332;10.230;2023-04-25T05:17:16;14.30;99.90
45765;DHT22;31474;45.332;10.230;2023-04-25T05:19:42;14.20;99.90
45765;DHT22;31474;45.332;10.230;2023-04-25T05:22:07;14.30;99.90
45765;DHT22;31474;45.332;10.230;2023-04-25T05:24:33;14.30;99.90
45765;DHT22;31474;45.332;10.230;2023-04-25T05:26:59;14.30;99.90
45765;DHT22;31474;45.332;10.230;2023-04-25T05:29:24;14.40;99.90
45765;DHT22;31474;45.332;10.230;2023-04-25T05:31:50;14.30;99.90
45765;DHT22;31474;45.332;10.230;2023-04-25T05:34:15;14.30;99.90
45765;DHT22;31474;45.332;10.230;2023-04-25T05:36:42;14.20;99.90
45765;DHT22;31474;45.332;10.230;2023-04-25T05:39:07;14.20;99.90
45765;DHT22;31474;45.332;10.230;2023-04-25T05:41:34;14.20;99.90
45765;DHT22;31474;45.332;10.230;2023-04-25T05:43:59;14.10;99.90
45765;DHT22;31474;45.332;10.230;2023-04-25T05:46:25;14.10;99.90
45765;DHT22;31474;45.332;10.230;2023-04-25T05:48:51;14.00;99.90
45765;DHT22;31474;45.332;10.230;2023-04-25T05:51:16;14.10;99.90
45765;DHT22;31474;45.332;10.230;2023-04-25T05:53:43;13.90;99.90
45765;DHT22;31474;45.332;10.230;2023-04-25T05:56:09;14.10;99.90
45765;DHT22;31474;45.332;10.230;2023-04-25T05:58:35;14.10;99.90
45765;DHT22;31474;45.332;10.230;2023-04-25T06:01:01;14.10;99.90
45765;DHT22;31474;45.332;10.230;2023-04-25T06:03:27;14.10;99.90
45765;DHT22;31474;45.332;10.230;2023-04-25T06:05:53;14.30;99.90
45765;DHT22;31474;45.332;10.230;2023-04-25T06:08:19;14.20;99.90
45765;DHT22;31474;45.332;10.230;2023-04-25T06:10:44;14.10;99.90
45765;DHT22;31474;45.332;10.230;2023-04-25T06:13:10;14.00;99.90
45765;DHT22;31474;45.332;10.230;2023-04-25T06:15:36;13.80;99.90
45765;DHT22;31474;45.332;10.230;2023-04-25T06:18:01;13.80;99.90
45765;DHT22;31474;45.332;10.230;2023-04-25T06:20:27;13.90;99.90
45765;DHT22;31474;45.332;10.230;2023-04-25T06:22:53;13.90;99.90
45765;DHT22;31474;45.332;10.230;2023-04-25T06:25:19;14.10;99.90
45765;DHT22;31474;45.332;10.230;2023-04-25T06:27:45;13.90;99.90
45765;DHT22;31474;45.332;10.230;2023-04-25T06:30:11;14.00;99.90
45765;DHT22;31474;45.332;10.230;2023-04-25T06:32:40;13.90;99.90
45765;DHT22;31474;45.332;10.230;2023-04-25T06:35:06;14.00;99.90
45765;DHT22;31474;45.332;10.230;2023-04-25T06:37:32;14.00;99.90
45765;DHT22;31474;45.332;10.230;2023-04-25T06:39:57;13.90;99.90
45765;DHT22;31474;45.332;10.230;2023-04-25T06:42:23;13.90;99.90
45765;DHT22;31474;45.332;10.230;2023-04-25T06:44:48;13.90;99.90
45765;DHT22;31474;45.332;10.230;2023-04-25T06:47:14;13.90;99.90
45765;DHT22;31474;45.332;10.230;2023-04-25T06:49:40;13.80;99.90
45765;DHT22;31474;45.332;10.230;2023-04-25T06:52:06;13.90;99.90
45765;DHT22;31474;45.332;10.230;2023-04-25T06:54:32;14.00;99.90
45765;DHT22;31474;45.332;10.230;2023-04-25T06:56:58;14.10;99.90
45765;DHT22;31474;45.332;10.230;2023-04-25T06:59:23;14.10;99.90
45765;DHT22;31474;45.332;10.230;2023-04-25T07:01:49;14.10;99.90
45765;DHT22;31474;45.332;10.230;2023-04-25T07:04:15;14.10;99.90
45765;DHT22;31474;45.332;10.230;2023-04-25T07:06:40;14.30;99.90
45765;DHT22;31474;45.332;10.230;2023-04-25T07:09:09;14.40;99.90
45765;DHT22;31474;45.332;10.230;2023-04-25T07:11:38;14.30;99.90
45765;DHT22;31474;45.332;10.230;2023-04-25T07:14:03;14.30;99.90
45765;DHT22;31474;45.332;10.230;2023-04-25T07:16:29;14.30;99.90
45765;DHT22;31474;45.332;10.230;2023-04-25T07:18:55;14.40;99.90
45765;DHT22;31474;45.332;10.230;2023-04-25T07:21:21;14.50;99.90
45765;DHT22;31474;45.332;10.230;2023-04-25T07:23:46;14.50;99.90
45765;DHT22;31474;45.332;10.230;2023-04-25T07:26:12;14.60;99.90
45765;DHT22;31474;45.332;10.230;2023-04-25T07:28:38;14.60;99.90
45765;DHT22;31474;45.332;10.230;2023-04-25T07:31:04;14.70;99.90
45765;DHT22;31474;45.332;10.230;2023-04-25T07:33:30;15.00;99.90
45765;DHT22;31474;45.332;10.230;2023-04-25T07:35:56;15.10;99.90
45765;DHT22;31474;45.332;10.230;2023-04-25T07:38:22;15.10;99.90
45765;DHT22;31474;45.332;10.230;2023-04-25T07:40:48;15.00;99.60
45765;DHT22;31474;45.332;10.230;2023-04-25T07:43:15;15.40;99.80
45765;DHT22;31474;45.332;10.230;2023-04-25T07:45:43;15.50;99.40
45765;DHT22;31474;45.332;10.230;2023-04-25T07:48:08;15.40;99.40
45765;DHT22;31474;45.332;10.230;2023-04-25T07:50:34;15.30;99.20
45765;DHT22;31474;45.332;10.230;2023-04-25T07:53:00;15.30;99.00
45765;DHT22;31474;45.332;10.230;2023-04-25T07:55:26;15.50;98.80
45765;DHT22;31474;45.332;10.230;2023-04-25T07:57:51;15.80;98.80
45765;DHT22;31474;45.332;10.230;2023-04-25T08:00:17;16.20;98.30
45765;DHT22;31474;45.332;10.230;2023-04-25T08:02:43;16.40;98.20
45765;DHT22;31474;45.332;10.230;2023-04-25T08:05:09;16.30;97.80
45765;DHT22;31474;45.332;10.230;2023-04-25T08:07:37;16.20;97.80
45765;DHT22;31474;45.332;10.230;2023-04-25T08:10:05;16.00;98.20
45765;DHT22;31474;45.332;10.230;2023-04-25T08:12:31;16.10;98.00
45765;DHT22;31474;45.332;10.230;2023-04-25T08:14:57;16.20;98.20
45765;DHT22;31474;45.332;10.230;2023-04-25T08:17:22;16.30;97.80
45765;DHT22;31474;45.332;10.230;2023-04-25T08:19:48;16.20;97.90
45765;DHT22;31474;45.332;10.230;2023-04-25T08:22:14;16.10;97.90
45765;DHT22;31474;45.332;10.230;2023-04-25T08:24:40;16.20;98.00
45765;DHT22;31474;45.332;10.230;2023-04-25T08:27:06;16.20;97.80
45765;DHT22;31474;45.332;10.230;2023-04-25T08:29:33;16.40;97.60
45765;DHT22;31474;45.332;10.230;2023-04-25T08:31:59;16.40;98.00
45765;DHT22;31474;45.332;10.230;2023-04-25T08:34:24;16.50;97.90
45765;DHT22;31474;45.332;10.230;2023-04-25T08:36:51;16.60;97.90
45765;DHT22;31474;45.332;10.230;2023-04-25T08:39:17;16.80;97.70
45765;DHT22;31474;45.332;10.230;2023-04-25T08:41:43;16.70;97.90
45765;DHT22;31474;45.332;10.230;2023-04-25T08:44:12;16.60;97.90
45765;DHT22;31474;45.332;10.230;2023-04-25T08:46:39;16.50;97.50
45765;DHT22;31474;45.332;10.230;2023-04-25T08:49:08;16.50;97.60
45765;DHT22;31474;45.332;10.230;2023-04-25T08:51:44;16.40;97.60
45765;DHT22;31474;45.332;10.230;2023-04-25T08:54:13;16.70;97.70
45765;DHT22;31474;45.332;10.230;2023-04-25T08:56:41;17.10;97.70
45765;DHT22;31474;45.332;10.230;2023-04-25T08:59:10;17.40;97.10
45765;DHT22;31474;45.332;10.230;2023-04-25T09:01:36;17.60;97.10
45765;DHT22;31474;45.332;10.230;2023-04-25T09:04:02;17.60;97.20
45765;DHT22;31474;45.332;10.230;2023-04-25T09:06:30;17.50;97.40
45765;DHT22;31474;45.332;10.230;2023-04-25T09:09:07;17.40;96.70
45765;DHT22;31474;45.332;10.230;2023-04-25T09:11:34;17.20;97.20
45765;DHT22;31474;45.332;10.230;2023-04-25T09:14:30;17.00;97.00
45765;DHT22;31474;45.332;10.230;2023-04-25T09:21:59;16.80;97.40
45765;DHT22;31474;45.332;10.230;2023-04-25T09:24:35;16.60;97.10
45765;DHT22;31474;45.332;10.230;2023-04-25T09:27:04;16.60;97.40
45765;DHT22;31474;45.332;10.230;2023-04-25T09:29:34;16.60;97.50
45765;DHT22;31474;45.332;10.230;2023-04-25T09:32:20;16.70;97.60
45765;DHT22;31474;45.332;10.230;2023-04-25T09:34:48;16.70;97.70
45765;DHT22;31474;45.332;10.230;2023-04-25T09:37:28;16.70;98.00
45765;DHT22;31474;45.332;10.230;2023-04-25T09:39:58;16.60;97.60
45765;DHT22;31474;45.332;10.230;2023-04-25T09:42:31;16.60;97.80
45765;DHT22;31474;45.332;10.230;2023-04-25T09:44:58;16.60;98.00
45765;DHT22;31474;45.332;10.230;2023-04-25T09:47:25;16.50;97.60
45765;DHT22;31474;45.332;10.230;2023-04-25T09:49:53;16.50;98.00
45765;DHT22;31474;45.332;10.230;2023-04-25T09:52:20;16.50;97.70
45765;DHT22;31474;45.332;10.230;2023-04-25T09:54:47;16.70;97.70
45765;DHT22;31474;45.332;10.230;2023-04-25T09:57:18;16.70;97.40
45765;DHT22;31474;45.332;10.230;2023-04-25T09:59:49;16.80;97.60
45765;DHT22;31474;45.332;10.230;2023-04-25T10:02:16;16.90;97.40
45765;DHT22;31474;45.332;10.230;2023-04-25T10:04:45;17.20;97.20
45765;DHT22;31474;45.332;10.230;2023-04-25T10:07:11;17.50;96.80
45765;DHT22;31474;45.332;10.230;2023-04-25T10:09:39;17.40;96.70
45765;DHT22;31474;45.332;10.230;2023-04-25T10:12:07;17.20;96.40
45765;DHT22;31474;45.332;10.230;2023-04-25T10:14:34;17.40;97.30
45765;DHT22;31474;45.332;10.230;2023-04-25T10:17:00;17.70;96.50
45765;DHT22;31474;45.332;10.230;2023-04-25T10:19:27;17.80;96.00
45765;DHT22;31474;45.332;10.230;2023-04-25T10:24:31;18.20;96.30
45765;DHT22;31474;45.332;10.230;2023-04-25T10:26:58;18.40;96.20
45765;DHT22;31474;45.332;10.230;2023-04-25T10:29:27;18.80;96.90
45765;DHT22;31474;45.332;10.230;2023-04-25T10:31:53;18.90;96.00
45765;DHT22;31474;45.332;10.230;2023-04-25T10:34:19;18.80;95.70
45765;DHT22;31474;45.332;10.230;2023-04-25T10:36:50;18.90;96.10
45765;DHT22;31474;45.332;10.230;2023-04-25T10:39:24;18.70;96.20
45765;DHT22;31474;45.332;10.230;2023-04-25T10:41:56;18.80;96.30
45765;DHT22;31474;45.332;10.230;2023-04-25T10:44:23;19.00;96.40
45765;DHT22;31474;45.332;10.230;2023-04-25T10:46:51;19.00;95.30
45765;DHT22;31474;45.332;10.230;2023-04-25T10:49:34;18.80;95.60
45765;DHT22;31474;45.332;10.230;2023-04-25T10:57:49;18.80;95.20
45765;DHT22;31474;45.332;10.230;2023-04-25T11:00:20;18.80;95.60
45765;DHT22;31474;45.332;10.230;2023-04-25T11:02:52;18.60;95.10
45765;DHT22;31474;45.332;10.230;2023-04-25T11:05:35;18.50;95.80
45765;DHT22;31474;45.332;10.230;2023-04-25T11:08:02;18.30;95.40
45765;DHT22;31474;45.332;10.230;2023-04-25T11:10:30;18.30;95.80
45765;DHT22;31474;45.332;10.230;2023-04-25T11:12:56;18.20;95.20
45765;DHT22;31474;45.332;10.230;2023-04-25T11:15:23;18.20;95.00
45765;DHT22;31474;45.332;10.230;2023-04-25T11:17:51;18.30;95.80
45765;DHT22;31474;45.332;10.230;2023-04-25T11:20:17;18.50;95.00
45765;DHT22;31474;45.332;10.230;2023-04-25T11:22:44;18.60;95.00
45765;DHT22;31474;45.332;10.230;2023-04-25T11:25:11;18.70;94.20
45765;DHT22;31474;45.332;10.230;2023-04-25T11:27:38;18.90;94.20
45765;DHT22;31474;45.332;10.230;2023-04-25T11:30:13;19.20;92.90
45765;DHT22;31474;45.332;10.230;2023-04-25T11:32:40;19.30;93.20
45765;DHT22;31474;45.332;10.230;2023-04-25T11:35:07;19.50;93.40
45765;DHT22;31474;45.332;10.230;2023-04-25T11:37:33;19.50;92.70
45765;DHT22;31474;45.332;10.230;2023-04-25T11:40:00;19.50;92.70
45765;DHT22;31474;45.332;10.230;2023-04-25T11:42:25;19.50;93.70
45765;DHT22;31474;45.332;10.230;2023-04-25T11:44:52;19.30;93.70
45765;DHT22;31474;45.332;10.230;2023-04-25T11:47:17;19.20;93.10
45765;DHT22;31474;45.332;10.230;2023-04-25T11:49:43;19.20;94.30
45765;DHT22;31474;45.332;10.230;2023-04-25T11:52:09;19.10;93.80
45765;DHT22;31474;45.332;10.230;2023-04-25T11:54:36;18.80;93.20
45765;DHT22;31474;45.332;10.230;2023-04-25T11:57:02;18.50;93.40
45765;DHT22;31474;45.332;10.230;2023-04-25T11:59:28;18.50;94.10
45765;DHT22;31474;45.332;10.230;2023-04-25T12:01:54;18.80;94.20
45765;DHT22;31474;45.332;10.230;2023-04-25T12:04:22;18.80;94.60
45765;DHT22;31474;45.332;10.230;2023-04-25T12:06:49;18.80;94.40
45765;DHT22;31474;45.332;10.230;2023-04-25T12:09:18;18.80;94.30
45765;DHT22;31474;45.332;10.230;2023-04-25T12:11:55;19.00;94.30
45765;DHT22;31474;45.332;10.230;2023-04-25T12:14:29;18.90;94.10
45765;DHT22;31474;45.332;10.230;2023-04-25T12:16:57;18.50;93.80
45765;DHT22;31474;45.332;10.230;2023-04-25T12:19:23;18.70;94.60
45765;DHT22;31474;45.332;10.230;2023-04-25T12:21:50;18.90;94.90
45765;DHT22;31474;45.332;10.230;2023-04-25T12:24:23;19.10;94.80
45765;DHT22;31474;45.332;10.230;2023-04-25T12:26:59;19.20;94.90
45765;DHT22;31474;45.332;10.230;2023-04-25T12:29:26;19.30;94.90
45765;DHT22;31474;45.332;10.230;2023-04-25T12:31:53;19.00;94.70
45765;DHT22;31474;45.332;10.230;2023-04-25T12:34:19;18.80;95.00
45765;DHT22;31474;45.332;10.230;2023-04-25T12:36:45;18.70;95.40
45765;DHT22;31474;45.332;10.230;2023-04-25T12:39:18;18.60;95.00
45765;DHT22;31474;45.332;10.230;2023-04-25T12:41:45;18.50;95.20
45765;DHT22;31474;45.332;10.230;2023-04-25T12:44:11;18.50;95.00
45765;DHT22;31474;45.332;10.230;2023-04-25T12:46:37;18.50;95.30
45765;DHT22;31474;45.332;10.230;2023-04-25T12:49:03;18.50;95.70
45765;DHT22;31474;45.332;10.230;2023-04-25T12:51:30;18.40;95.50
45765;DHT22;31474;45.332;10.230;2023-04-25T12:53:55;18.30;95.50
45765;DHT22;31474;45.332;10.230;2023-04-25T12:56:21;18.30;95.90
45765;DHT22;31474;45.332;10.230;2023-04-25T12:58:47;18.20;95.80
45765;DHT22;31474;45.332;10.230;2023-04-25T13:01:14;18.20;96.10
45765;DHT22;31474;45.332;10.230;2023-04-25T13:03:40;18.10;96.00
45765;DHT22;31474;45.332;10.230;2023-04-25T13:06:06;18.10;96.00
45765;DHT22;31474;45.332;10.230;2023-04-25T13:08:32;18.00;96.10
45765;DHT22;31474;45.332;10.230;2023-04-25T13:10:57;18.00;96.20
45765;DHT22;31474;45.332;10.230;2023-04-25T13:13:23;18.10;96.00
45765;DHT22;31474;45.332;10.230;2023-04-25T13:15:49;18.10;96.20
45765;DHT22;31474;45.332;10.230;2023-04-25T13:18:15;18.10;96.40
45765;DHT22;31474;45.332;10.230;2023-04-25T13:20:40;18.10;96.40
45765;DHT22;31474;45.332;10.230;2023-04-25T13:23:06;17.90;96.30
45765;DHT22;31474;45.332;10.230;2023-04-25T13:25:32;17.80;96.70
45765;DHT22;31474;45.332;10.230;2023-04-25T13:27:57;17.80;96.90
45765;DHT22;31474;45.332;10.230;2023-04-25T13:30:23;17.80;97.20
45765;DHT22;31474;45.332;10.230;2023-04-25T13:32:49;17.90;98.00
45765;DHT22;31474;45.332;10.230;2023-04-25T13:35:14;17.90;97.90
45765;DHT22;31474;45.332;10.230;2023-04-25T13:37:40;18.10;98.30
45765;DHT22;31474;45.332;10.230;2023-04-25T13:40:08;18.10;98.60
45765;DHT22;31474;45.332;10.230;2023-04-25T13:42:35;18.10;99.30
45765;DHT22;31474;45.332;10.230;2023-04-25T13:45:01;18.20;99.00
45765;DHT22;31474;45.332;10.230;2023-04-25T13:47:27;18.40;99.10
45765;DHT22;31474;45.332;10.230;2023-04-25T13:49:53;18.40;99.20
45765;DHT22;31474;45.332;10.230;2023-04-25T13:52:20;18.30;98.50
45765;DHT22;31474;45.332;10.230;2023-04-25T13:54:45;18.20;97.50
45765;DHT22;31474;45.332;10.230;2023-04-25T13:57:11;18.20;98.40
45765;DHT22;31474;45.332;10.230;2023-04-25T13:59:39;18.10;97.90
45765;DHT22;31474;45.332;10.230;2023-04-25T14:02:06;18.00;97.40
45765;DHT22;31474;45.332;10.230;2023-04-25T14:04:32;17.90;97.60
45765;DHT22;31474;45.332;10.230;2023-04-25T14:06:58;17.70;98.00
45765;DHT22;31474;45.332;10.230;2023-04-25T14:09:24;17.60;98.60
45765;DHT22;31474;45.332;10.230;2023-04-25T14:11:51;17.20;99.20
45765;DHT22;31474;45.332;10.230;2023-04-25T14:14:18;16.30;99.30
45765;DHT22;31474;45.332;10.230;2023-04-25T14:16:44;15.80;99.90
45765;DHT22;31474;45.332;10.230;2023-04-25T14:19:09;15.70;99.80
45765;DHT22;31474;45.332;10.230;2023-04-25T14:21:35;15.50;99.80
45765;DHT22;31474;45.332;10.230;2023-04-25T14:24:01;15.50;99.60
45765;DHT22;31474;45.332;10.230;2023-04-25T14:26:26;15.40;99.20
45765;DHT22;31474;45.332;10.230;2023-04-25T14:28:52;15.50;99.40
45765;DHT22;31474;45.332;10.230;2023-04-25T14:31:18;15.40;99.90
45765;DHT22;31474;45.332;10.230;2023-04-25T14:33:43;15.30;99.90
45765;DHT22;31474;45.332;10.230;2023-04-25T14:36:09;15.30;99.90
45765;DHT22;31474;45.332;10.230;2023-04-25T14:38:36;15.20;99.90
45765;DHT22;31474;45.332;10.230;2023-04-25T14:41:02;14.90;99.90
45765;DHT22;31474;45.332;10.230;2023-04-25T14:43:27;14.80;99.90
45765;DHT22;31474;45.332;10.230;2023-04-25T14:45:53;14.90;99.90
45765;DHT22;31474;45.332;10.230;2023-04-25T14:48:19;14.90;99.90
45765;DHT22;31474;45.332;10.230;2023-04-25T14:50:45;14.90;99.90
45765;DHT22;31474;45.332;10.230;2023-04-25T14:53:11;14.80;99.90
45765;DHT22;31474;45.332;10.230;2023-04-25T14:55:37;14.90;99.90
45765;DHT22;31474;45.332;10.230;2023-04-25T14:58:03;15.00;99.90
45765;DHT22;31474;45.332;10.230;2023-04-25T15:00:29;15.30;99.90
45765;DHT22;31474;45.332;10.230;2023-04-25T15:02:56;15.40;99.90
45765;DHT22;31474;45.332;10.230;2023-04-25T15:05:22;15.50;99.90
45765;DHT22;31474;45.332;10.230;2023-04-25T15:07:47;15.50;99.90
45765;DHT22;31474;45.332;10.230;2023-04-25T15:10:13;15.50;99.90
45765;DHT22;31474;45.332;10.230;2023-04-25T15:12:44;15.60;99.90
45765;DHT22;31474;45.332;10.230;2023-04-25T15:15:10;15.50;99.90
45765;DHT22;31474;45.332;10.230;2023-04-25T15:17:41;15.60;99.90
45765;DHT22;31474;45.332;10.230;2023-04-25T15:20:08;15.40;99.90
45765;DHT22;31474;45.332;10.230;2023-04-25T15:22:41;15.50;99.90
45765;DHT22;31474;45.332;10.230;2023-04-25T15:25:08;15.50;99.90